createdAt,value
2023-05-25T04:15:21.957Z,100.00
2023-05-25T04:18:24.857Z,100.00
2023-05-25T04:21:30.374Z,100.00
2023-05-25T04:24:35.197Z,100.00
2023-05-25T04:27:38.109Z,100.00
2023-05-25T04:30:42.304Z,100.00
2023-05-25T04:33:45.082Z,100.00
2023-05-25T04:36:48.163Z,98.19
2023-05-25T04:39:51.485Z,94.08
2023-05-25T04:43:00.024Z,91.05
2023-05-25T04:46:08.020Z,89.05
2023-05-25T04:49:11.033Z,86.26
2023-05-25T04:52:13.969Z,82.78
2023-05-25T04:55:24.958Z,80.08
2023-05-25T04:58:29.583Z,77.76
2023-05-25T05:01:34.579Z,80.32
2023-05-25T05:04:38.609Z,79.49
2023-05-25T05:07:41.283Z,79.39
2023-05-25T05:10:44.779Z,84.61
2023-05-25T05:13:47.469Z,88.28
2023-05-25T05:16:51.482Z,91.75
2023-05-25T05:19:54.100Z,96.42
2023-05-25T05:22:56.621Z,100.00
2023-05-25T05:25:59.119Z,100.00
2023-05-25T05:29:01.611Z,100.00
2023-05-25T05:32:05.906Z,100.00
2023-05-25T05:35:09.000Z,100.00
2023-05-25T05:38:11.717Z,100.00
2023-05-25T05:41:14.453Z,98.77
2023-05-25T05:44:17.113Z,98.67
2023-05-25T05:47:21.311Z,97.37
2023-05-25T05:50:23.953Z,92.31
2023-05-25T05:53:26.544Z,93.48
2023-05-25T05:56:29.056Z,93.60
2023-05-25T05:59:31.598Z,92.33
2023-05-25T06:02:35.680Z,94.93
2023-05-25T06:05:38.295Z,94.76
2023-05-25T06:08:41.603Z,95.15
2023-05-25T06:11:44.112Z,96.72
2023-05-25T06:14:49.227Z,96.88
2023-05-25T06:17:53.364Z,95.98
2023-05-25T06:20:55.886Z,97.07
2023-05-25T06:23:58.663Z,99.07
2023-05-25T06:27:03.243Z,99.88
2023-05-25T06:30:06.919Z,98.63
2023-05-25T06:33:10.771Z,89.52
2023-05-25T06:36:15.675Z,81.54
2023-05-25T06:39:18.637Z,78.64
2023-05-25T06:42:21.148Z,78.87
2023-05-25T06:45:23.667Z,76.45
2023-05-25T06:48:27.802Z,71.90
2023-05-25T06:51:31.433Z,70.45
2023-05-25T06:54:34.021Z,68.12
2023-05-25T06:57:36.672Z,73.12
2023-05-25T07:00:39.197Z,73.98
2023-05-25T07:03:43.263Z,67.59
2023-05-25T07:06:46.125Z,66.43
2023-05-25T07:09:48.676Z,63.72
2023-05-25T07:12:51.185Z,59.45
2023-05-25T07:15:53.714Z,58.39
2023-05-25T07:18:59.423Z,63.25
2023-05-25T07:22:02.766Z,67.39
2023-05-25T07:25:06.149Z,63.52
2023-05-25T07:28:09.172Z,69.39
2023-05-25T07:31:12.058Z,68.09
2023-05-25T07:34:16.178Z,67.02
2023-05-25T07:37:18.707Z,60.51
2023-05-25T07:40:21.320Z,61.89
2023-05-25T07:43:23.854Z,63.55
2023-05-25T07:46:27.066Z,63.82
2023-05-25T07:49:30.917Z,62.71
2023-05-25T07:52:33.552Z,64.60
2023-05-25T07:55:36.103Z,56.49
2023-05-25T07:58:38.598Z,59.20
2023-05-25T08:01:41.200Z,61.92
2023-05-25T08:04:45.467Z,66.60
2023-05-25T08:07:48.195Z,74.30
2023-05-25T08:10:50.735Z,68.82
2023-05-25T08:13:53.432Z,62.09
2023-05-25T08:16:56.106Z,61.15
2023-05-25T08:20:00.100Z,59.68
2023-05-25T08:23:02.770Z,61.44
2023-05-25T08:26:20.439Z,59.54
2023-05-25T08:29:29.024Z,68.46
2023-05-25T08:32:31.567Z,80.53
2023-05-25T08:35:39.261Z,84.07
2023-05-25T08:38:41.853Z,78.28
2023-05-25T08:41:45.523Z,86.29
2023-05-25T08:44:48.077Z,87.36
2023-05-25T08:47:55.192Z,90.40
2023-05-25T08:51:01.572Z,79.86
2023-05-25T08:54:08.920Z,73.03
2023-05-25T08:57:16.089Z,70.74
2023-05-25T09:00:22.843Z,78.51
2023-05-25T09:03:25.907Z,82.55
2023-05-25T09:06:31.610Z,75.19
2023-05-25T09:09:37.042Z,74.46
2023-05-25T09:12:40.138Z,78.49
2023-05-25T09:15:42.757Z,67.75
2023-05-25T09:18:45.501Z,60.73
2023-05-25T09:21:51.326Z,70.25
2023-05-25T09:24:55.708Z,83.97
2023-05-25T09:28:01.300Z,91.72
2023-05-25T09:31:07.672Z,96.54
2023-05-25T09:34:12.926Z,95.21
2023-05-25T09:37:19.461Z,82.27
2023-05-25T09:40:22.403Z,65.85
2023-05-25T09:43:39.689Z,63.04
2023-05-25T09:46:45.720Z,60.14
2023-05-25T09:49:50.534Z,57.16
2023-05-25T09:52:59.241Z,59.17
2023-05-25T09:56:03.927Z,63.95
2023-05-25T09:59:07.456Z,64.82
2023-05-25T10:02:10.178Z,58.33
2023-05-25T10:05:12.721Z,55.81
2023-05-25T10:08:18.773Z,56.42
2023-05-25T10:11:22.624Z,55.38
2023-05-25T10:14:29.467Z,54.30
2023-05-25T10:17:33.664Z,48.46
2023-05-25T10:20:37.383Z,51.93
2023-05-25T10:23:48.090Z,48.96
2023-05-25T10:26:55.336Z,55.52
2023-05-25T10:29:59.127Z,61.64
2023-05-25T10:33:03.598Z,61.81
2023-05-25T10:36:11.208Z,56.81
2023-05-25T10:39:17.130Z,58.12
2023-05-25T10:42:19.975Z,68.07
2023-05-25T10:45:23.018Z,73.52
2023-05-25T10:48:36.022Z,72.13
2023-05-25T10:51:39.538Z,65.36
2023-05-25T10:54:44.418Z,61.96
2023-05-25T10:57:47.307Z,59.33
2023-05-25T11:00:59.082Z,62.03
2023-05-25T11:04:17.180Z,68.86
2023-05-25T11:07:22.949Z,67.52
2023-05-25T11:10:54.826Z,56.84
2023-05-25T11:13:57.350Z,54.50
2023-05-25T11:17:08.005Z,59.12
2023-05-25T11:20:22.941Z,68.83
2023-05-25T11:23:26.029Z,74.22
2023-05-25T11:26:31.111Z,74.27
2023-05-25T11:29:36.177Z,61.93
2023-05-25T11:32:46.538Z,59.39
2023-05-25T11:35:50.182Z,55.10
2023-05-25T11:39:04.959Z,53.66
2023-05-25T11:42:16.676Z,54.45
2023-05-25T11:45:19.221Z,50.16
2023-05-25T11:48:21.773Z,52.12
2023-05-25T11:51:25.873Z,61.03
2023-05-25T11:54:29.931Z,66.66
2023-05-25T11:57:33.879Z,67.84
2023-05-25T12:00:36.383Z,67.30
2023-05-25T12:03:38.970Z,72.28
2023-05-25T12:06:41.797Z,69.34
2023-05-25T12:09:44.364Z,69.78
2023-05-25T12:12:49.389Z,72.28
2023-05-25T12:15:52.446Z,74.86
2023-05-25T12:18:55.905Z,75.30
2023-05-25T12:21:58.637Z,77.33
2023-05-25T12:25:01.608Z,77.19
2023-05-25T12:28:16.100Z,75.46
2023-05-25T12:31:22.943Z,77.02
2023-05-25T12:34:28.382Z,77.68
2023-05-25T12:37:31.165Z,79.06
2023-05-25T12:40:33.685Z,80.97
2023-05-25T12:43:43.722Z,78.39
2023-05-25T12:46:46.345Z,76.60
2023-05-25T12:49:51.840Z,74.21
2023-05-25T12:53:01.882Z,72.09
2023-05-25T12:56:05.697Z,72.45
2023-05-25T12:59:18.878Z,70.75
2023-05-25T13:02:21.427Z,70.48
2023-05-25T13:05:26.244Z,71.61
2023-05-25T13:08:29.019Z,72.07
2023-05-25T13:11:31.533Z,79.56
2023-05-25T13:14:36.030Z,78.19
2023-05-25T13:17:38.757Z,81.10
2023-05-25T13:20:41.708Z,80.01
2023-05-25T13:23:44.428Z,74.00
2023-05-25T13:26:49.233Z,72.12
2023-05-25T13:29:54.595Z,73.00
2023-05-25T13:32:57.146Z,72.02
2023-05-25T13:36:07.814Z,73.37
2023-05-25T13:39:13.365Z,70.69
2023-05-25T13:42:15.894Z,70.03
2023-05-25T13:45:19.902Z,68.15
2023-05-25T13:48:22.608Z,64.54
2023-05-25T13:51:25.167Z,61.18
2023-05-25T13:54:27.662Z,61.25
2023-05-25T13:57:30.121Z,63.04
2023-05-25T14:00:34.392Z,67.55
2023-05-25T14:03:38.544Z,69.23
2023-05-25T14:06:41.207Z,63.03
2023-05-25T14:09:43.789Z,68.73
2023-05-25T14:12:46.318Z,70.12
2023-05-25T14:15:50.163Z,70.87
2023-05-25T14:18:52.905Z,70.85
2023-05-25T14:25:00.805Z,69.54
2023-05-25T14:28:03.418Z,66.85
2023-05-25T14:31:07.315Z,66.41
2023-05-25T14:34:09.858Z,67.49
2023-05-25T14:37:12.914Z,69.75
2023-05-25T14:40:15.415Z,65.65
2023-05-25T14:43:17.921Z,64.62
2023-05-25T14:46:21.770Z,66.77
2023-05-25T14:49:25.065Z,68.58
2023-05-25T14:52:27.605Z,68.84
2023-05-25T14:55:30.123Z,69.38
2023-05-25T14:58:32.897Z,68.20
2023-05-25T15:01:36.850Z,64.05
2023-05-25T15:04:39.463Z,61.54
2023-05-25T15:07:42.387Z,58.99
2023-05-25T15:10:44.985Z,55.90
2023-05-25T15:13:47.590Z,57.88
2023-05-25T15:16:51.516Z,58.11
2023-05-25T15:19:54.187Z,58.59
2023-05-25T15:22:56.769Z,61.33
2023-05-25T15:26:03.741Z,66.24
2023-05-25T15:29:06.238Z,69.98
2023-05-25T15:32:13.217Z,71.53
2023-05-25T15:35:15.920Z,70.98
2023-05-25T15:38:18.563Z,72.38
2023-05-25T15:41:21.088Z,73.96
2023-05-25T15:44:23.581Z,73.84
2023-05-25T15:47:27.419Z,74.64
2023-05-25T15:50:29.923Z,77.11
2023-05-25T15:53:33.831Z,77.78
2023-05-25T15:56:36.627Z,78.53
2023-05-25T15:59:39.083Z,76.63
2023-05-25T16:02:42.981Z,78.23
2023-05-25T16:05:45.777Z,75.23
2023-05-25T16:08:48.462Z,72.91
2023-05-25T16:11:51.431Z,70.37
2023-05-25T16:14:54.018Z,69.56
2023-05-25T16:17:57.834Z,69.10
2023-05-25T16:21:00.750Z,72.29
2023-05-25T16:24:03.555Z,68.52
2023-05-25T16:27:06.948Z,74.32
2023-05-25T16:30:13.093Z,75.64
2023-05-25T16:33:17.269Z,79.46
2023-05-25T16:36:19.790Z,79.50
2023-05-25T16:39:22.299Z,78.05
2023-05-25T16:42:26.283Z,73.58
2023-05-25T16:45:29.018Z,71.51
2023-05-25T16:48:32.876Z,74.70
2023-05-25T16:51:35.440Z,80.34
2023-05-25T16:54:37.921Z,78.01
2023-05-25T16:57:40.456Z,79.77
2023-05-25T17:00:43.332Z,79.66
2023-05-25T17:03:47.278Z,78.69
2023-05-25T17:06:49.873Z,76.03
2023-05-25T17:09:52.384Z,77.21
2023-05-25T17:12:55.102Z,78.47
2023-05-25T17:15:57.855Z,77.29
2023-05-25T17:19:01.663Z,78.99
2023-05-25T17:22:04.186Z,79.06
2023-05-25T17:25:08.868Z,77.39
2023-05-25T17:28:11.520Z,82.25
2023-05-25T17:31:14.122Z,81.99
2023-05-25T17:34:18.185Z,84.26
2023-05-25T17:37:21.200Z,83.26
2023-05-25T17:40:24.023Z,85.25
2023-05-25T17:43:26.528Z,86.45
2023-05-25T17:46:29.298Z,82.64
2023-05-25T17:49:33.428Z,80.48
2023-05-25T17:52:36.078Z,80.23
2023-05-25T17:55:38.550Z,76.62
2023-05-25T17:58:47.143Z,72.13
2023-05-25T18:01:49.720Z,68.44
2023-05-25T18:04:53.525Z,67.66
2023-05-25T18:07:56.034Z,65.85
2023-05-25T18:10:59.011Z,66.21
2023-05-25T18:14:01.541Z,66.16
2023-05-25T18:17:04.715Z,68.26
2023-05-25T18:20:10.216Z,67.66
2023-05-25T18:23:13.298Z,69.25
2023-05-25T18:26:15.824Z,70.72
2023-05-25T18:29:18.447Z,72.13
2023-05-25T18:32:20.961Z,72.54
2023-05-25T18:35:24.941Z,75.45
2023-05-25T18:38:27.412Z,77.14
2023-05-25T18:41:30.083Z,80.06
2023-05-25T18:44:32.739Z,80.42
2023-05-25T18:47:35.512Z,82.06
2023-05-25T18:50:41.846Z,84.48
2023-05-25T18:53:44.695Z,86.29
2023-05-25T18:56:47.258Z,89.42
2023-05-25T18:59:49.793Z,93.87
2023-05-25T19:02:52.363Z,99.17
2023-05-25T19:05:56.277Z,100.00
2023-05-25T19:08:58.766Z,100.00
2023-05-25T19:12:01.390Z,100.00
2023-05-25T19:15:05.039Z,100.00
2023-05-25T19:18:07.572Z,100.00
2023-05-25T19:21:11.473Z,100.00
